In Rescue
 
Open Full Screen Window  High Contrast Mode
May 20, 2019 1:24 PM CDT
Weather Information
Wind Direction
  ---
Wind Speed
  00 kt (0 mph)
Wind Gust
  00 kt (0 mph)
Altimeter
30.17 in
Visibility
10 SM
Temperature
15° C
59° F
Dewpoint
04° C
39° F
Humidity
48%
1hr Rain Fall
00.00 in.
24hr Rain Fall
00.00 in.
Sky Condition
Scattered @ 6,000 ft
Scattered @ 4,800 ft
VFR

METAR KMGG 201824Z AUTO 00000KT 10SM SCT048 SCT060 15/04 A3017 RMK AO2 T01460041

FAA Disclaimer: The data displayed is for advisory purposes only and is not to be used for flight planning or operations.